Time;durP1;ratioP1;P1;durP2;ratioP2;P2;SDS_P1;SDS_P2;PMS_P1;PMS_P2;Temp;Humidity;BMP_temperature;BMP_pressure;BME280_temperature;BME280_humidity;BME280_pressure;Samples;Min_cycle;Max_cycle;Signal;HPM_P1;HPM_P2
2023/02/12 00:00:50;;;;;;;;;;;8.30;99.90;;;;;;8385921;28;20379;-73
2023/02/12 00:04:52;;;;;;;;;;;8.30;99.90;;;;;;8403113;28;19924;-73
2023/02/12 00:08:54;;;;;;;;;;;8.30;99.90;;;;;;8385137;28;20379;-73
2023/02/12 00:12:56;;;;;;;;;;;8.30;99.90;;;;;;8385326;28;20306;-73
2023/02/12 00:16:57;;;;;;;;;;;8.30;99.90;;;;;;8390485;28;19931;-73
2023/02/12 00:21:00;;;;;;;;;;;8.30;99.90;;;;;;8391790;28;19936;-73
2023/02/12 00:25:02;;;;;;;;;;;8.30;99.90;;;;;;8375725;28;19925;-72
2023/02/12 00:29:03;;;;;;;;;;;8.40;99.90;;;;;;8388505;28;19924;-72
2023/02/12 00:33:05;;;;;;;;;;;8.40;99.90;;;;;;8357700;28;20007;-73
2023/02/12 00:37:06;;;;;;;;;;;8.30;99.90;;;;;;8399656;28;19931;-73
2023/02/12 00:41:08;;;;;;;;;;;8.30;99.90;;;;;;8384987;28;20299;-73
2023/02/12 00:45:10;;;;;;;;;;;8.30;99.90;;;;;;8398254;28;19928;-73
2023/02/12 00:49:12;;;;;;;;;;;8.30;99.90;;;;;;8398716;28;19932;-72
2023/02/12 00:53:13;;;;;;;;;;;8.20;99.90;;;;;;8402606;28;19974;-73
2023/02/12 00:57:15;;;;;;;;;;;8.20;99.90;;;;;;8381843;28;19924;-73
2023/02/12 01:01:17;;;;;;;;;;;8.20;99.90;;;;;;8395407;28;19924;-73
2023/02/12 01:05:19;;;;;;;;;;;8.20;99.90;;;;;;8402962;28;19959;-73
2023/02/12 01:09:20;;;;;;;;;;;8.20;99.90;;;;;;8395484;28;19928;-73
2023/02/12 01:13:22;;;;;;;;;;;8.20;99.90;;;;;;8406612;28;19962;-72
2023/02/12 01:17:24;;;;;;;;;;;8.20;99.90;;;;;;8384009;28;19928;-72
2023/02/12 01:21:27;;;;;;;;;;;8.20;99.90;;;;;;8406816;28;19978;-72
2023/02/12 01:25:29;;;;;;;;;;;8.10;99.90;;;;;;8385004;28;19924;-73
2023/02/12 01:29:31;;;;;;;;;;;8.10;99.90;;;;;;8382473;28;20387;-73
2023/02/12 01:33:32;;;;;;;;;;;8.10;99.90;;;;;;8382602;28;19965;-73
2023/02/12 01:37:36;;;;;;;;;;;8.10;99.90;;;;;;8412492;28;20344;-72
2023/02/12 01:41:42;;;;;;;;;;;8.10;99.90;;;;;;8407541;28;19924;-73
2023/02/12 01:45:44;;;;;;;;;;;8.00;99.90;;;;;;8408564;28;19967;-73
2023/02/12 01:49:47;;;;;;;;;;;8.00;99.90;;;;;;8397551;28;19999;-74
2023/02/12 01:53:50;;;;;;;;;;;8.00;99.90;;;;;;8393607;28;20276;-73
2023/02/12 01:57:52;;;;;;;;;;;8.00;99.90;;;;;;8408883;28;20356;-73
2023/02/12 02:01:53;;;;;;;;;;;8.00;99.90;;;;;;8390782;28;20662;-73
2023/02/12 02:05:59;;;;;;;;;;;8.00;99.90;;;;;;8412383;28;20287;-73
2023/02/12 02:10:01;;;;;;;;;;;8.00;99.90;;;;;;8397074;28;20397;-73
2023/02/12 02:18:25;;;;;;;;;;;8.00;99.90;;;;;;8402706;28;20019;-73
2023/02/12 02:22:47;;;;;;;;;;;8.00;99.90;;;;;;8386217;28;19925;-72
2023/02/12 02:26:53;;;;;;;;;;;7.90;99.90;;;;;;8382764;28;20028;-73
2023/02/12 02:31:00;;;;;;;;;;;7.90;99.90;;;;;;8401793;28;19966;-73
2023/02/12 02:35:20;;;;;;;;;;;7.90;99.90;;;;;;8399828;28;19977;-73
2023/02/12 02:39:32;;;;;;;;;;;7.90;99.90;;;;;;8397792;28;19968;-73
2023/02/12 02:43:37;;;;;;;;;;;7.90;99.90;;;;;;8379365;28;19937;-72
2023/02/12 02:47:41;;;;;;;;;;;7.90;99.90;;;;;;8384748;28;19970;-73
2023/02/12 02:51:46;;;;;;;;;;;7.90;99.90;;;;;;8407266;28;20344;-73
2023/02/12 02:55:52;;;;;;;;;;;7.90;99.90;;;;;;8382250;28;20345;-73
2023/02/12 02:59:56;;;;;;;;;;;7.90;99.90;;;;;;8382146;28;19924;-73
2023/02/12 03:04:02;;;;;;;;;;;7.90;99.90;;;;;;8382745;28;19924;-72
2023/02/12 03:08:07;;;;;;;;;;;7.90;99.90;;;;;;8377104;28;20359;-72
2023/02/12 03:12:13;;;;;;;;;;;7.90;99.90;;;;;;8403145;28;19981;-73
2023/02/12 03:16:20;;;;;;;;;;;7.90;99.90;;;;;;8397146;28;20529;-72
2023/02/12 03:20:25;;;;;;;;;;;7.90;99.90;;;;;;8406240;28;19967;-72
2023/02/12 03:24:34;;;;;;;;;;;7.80;99.90;;;;;;8403618;28;19923;-73
2023/02/12 03:28:37;;;;;;;;;;;7.90;99.90;;;;;;8410861;28;19978;-72
2023/02/12 03:32:49;;;;;;;;;;;7.90;99.90;;;;;;8389965;28;20468;-73
2023/02/12 03:36:57;;;;;;;;;;;7.90;99.90;;;;;;8393775;28;19936;-72
2023/02/12 03:41:03;;;;;;;;;;;7.80;99.90;;;;;;8378748;28;19929;-72
2023/02/12 03:45:26;;;;;;;;;;;7.80;99.90;;;;;;8401057;28;20295;-73
2023/02/12 03:49:32;;;;;;;;;;;7.80;99.90;;;;;;8401203;28;19978;-73
2023/02/12 03:53:34;;;;;;;;;;;7.80;99.90;;;;;;8392776;28;20004;-73
2023/02/12 03:57:40;;;;;;;;;;;7.80;99.90;;;;;;8400274;28;19931;-72
2023/02/12 04:01:42;;;;;;;;;;;7.80;99.90;;;;;;8380233;28;19925;-73
2023/02/12 04:05:44;;;;;;;;;;;7.80;99.90;;;;;;8385212;28;19924;-72
2023/02/12 04:09:46;;;;;;;;;;;7.80;99.90;;;;;;8404860;28;19986;-72
2023/02/12 04:13:53;;;;;;;;;;;7.80;99.90;;;;;;8390378;28;19924;-72
2023/02/12 04:18:10;;;;;;;;;;;7.80;99.90;;;;;;8381827;28;19967;-73
2023/02/12 04:22:31;;;;;;;;;;;7.90;99.90;;;;;;8388704;28;19963;-73
2023/02/12 04:26:51;;;;;;;;;;;7.80;99.90;;;;;;8391427;28;20007;-73
2023/02/12 04:30:59;;;;;;;;;;;7.80;99.90;;;;;;8386823;28;19931;-73
2023/02/12 04:35:08;;;;;;;;;;;7.80;99.90;;;;;;8381581;28;19935;-73
2023/02/12 04:39:14;;;;;;;;;;;7.80;99.90;;;;;;8396594;28;19974;-73
2023/02/12 04:43:25;;;;;;;;;;;7.80;99.90;;;;;;8393238;28;19925;-73
2023/02/12 04:47:26;;;;;;;;;;;7.80;99.90;;;;;;8376817;28;20380;-72
2023/02/12 04:51:28;;;;;;;;;;;7.80;99.90;;;;;;8388642;28;19925;-73
2023/02/12 04:55:29;;;;;;;;;;;7.80;99.90;;;;;;8391694;28;20321;-73
2023/02/12 04:59:31;;;;;;;;;;;7.80;99.90;;;;;;8382520;28;20032;-72
2023/02/12 05:03:33;;;;;;;;;;;7.80;99.90;;;;;;8389778;28;20007;-73
2023/02/12 05:07:34;;;;;;;;;;;7.80;99.90;;;;;;8396274;28;19971;-73
2023/02/12 05:11:36;;;;;;;;;;;7.80;99.90;;;;;;8368517;28;20298;-73
2023/02/12 05:15:38;;;;;;;;;;;7.80;99.90;;;;;;8387827;28;19975;-73
2023/02/12 05:19:40;;;;;;;;;;;7.80;99.90;;;;;;8384871;28;20289;-73
2023/02/12 05:23:42;;;;;;;;;;;7.70;99.90;;;;;;8388431;28;19959;-73
2023/02/12 05:27:43;;;;;;;;;;;7.70;99.90;;;;;;8403315;28;19968;-73
2023/02/12 05:31:45;;;;;;;;;;;7.70;99.90;;;;;;8378768;28;20398;-73
2023/02/12 05:35:47;;;;;;;;;;;7.70;99.90;;;;;;8358558;28;19967;-73
2023/02/12 05:39:49;;;;;;;;;;;7.70;99.90;;;;;;8378680;28;19939;-72
2023/02/12 05:43:50;;;;;;;;;;;7.80;99.90;;;;;;8380517;28;20008;-73
2023/02/12 05:47:52;;;;;;;;;;;7.80;99.90;;;;;;8372587;28;20419;-73
2023/02/12 05:51:54;;;;;;;;;;;7.80;99.90;;;;;;8367583;28;19932;-72
2023/02/12 05:56:05;;;;;;;;;;;7.80;99.90;;;;;;8375224;28;19933;-72
2023/02/12 06:00:08;;;;;;;;;;;7.80;99.90;;;;;;8347998;28;19928;-73
2023/02/12 06:04:13;;;;;;;;;;;7.80;99.90;;;;;;8401690;28;20268;-73
2023/02/12 06:08:15;;;;;;;;;;;7.90;99.90;;;;;;8399541;28;20422;-73
2023/02/12 06:12:16;;;;;;;;;;;7.80;99.90;;;;;;8401080;28;19924;-73
2023/02/12 06:16:22;;;;;;;;;;;7.80;99.90;;;;;;8391206;28;19929;-73
2023/02/12 06:20:24;;;;;;;;;;;7.80;99.90;;;;;;8385419;28;20362;-73
2023/02/12 06:24:26;;;;;;;;;;;7.80;99.90;;;;;;8388357;28;19936;-73
2023/02/12 06:28:27;;;;;;;;;;;7.70;99.90;;;;;;8393533;28;20018;-73
2023/02/12 06:32:29;;;;;;;;;;;7.70;99.90;;;;;;8391428;28;19931;-73
2023/02/12 06:36:31;;;;;;;;;;;7.70;99.90;;;;;;8393674;28;19928;-73
2023/02/12 06:40:32;;;;;;;;;;;7.70;99.90;;;;;;8386984;28;20393;-73
2023/02/12 06:44:34;;;;;;;;;;;7.70;99.90;;;;;;8400279;28;19924;-72
2023/02/12 06:48:35;;;;;;;;;;;7.70;99.90;;;;;;8368310;28;19971;-73
2023/02/12 06:52:37;;;;;;;;;;;7.60;99.90;;;;;;8385815;28;19955;-73
2023/02/12 06:56:39;;;;;;;;;;;7.70;99.90;;;;;;8403897;28;20011;-72
2023/02/12 07:00:40;;;;;;;;;;;7.70;99.90;;;;;;8401542;28;19924;-73
2023/02/12 07:04:42;;;;;;;;;;;7.70;99.90;;;;;;8393819;28;20280;-73
2023/02/12 07:08:44;;;;;;;;;;;7.70;99.90;;;;;;8389590;28;19962;-73
2023/02/12 07:12:46;;;;;;;;;;;7.80;99.90;;;;;;8385192;28;20428;-73
2023/02/12 07:16:47;;;;;;;;;;;7.80;99.90;;;;;;8386870;28;20348;-73
2023/02/12 07:20:49;;;;;;;;;;;7.80;99.90;;;;;;8397716;28;19924;-73
2023/02/12 07:24:51;;;;;;;;;;;7.70;99.90;;;;;;8388672;28;19924;-72
2023/02/12 07:28:52;;;;;;;;;;;7.70;99.90;;;;;;8377718;28;20607;-73
2023/02/12 07:32:54;;;;;;;;;;;7.70;99.90;;;;;;8377573;28;19975;-73
2023/02/12 07:36:55;;;;;;;;;;;7.70;99.90;;;;;;8363797;28;19928;-73
2023/02/12 07:41:10;;;;;;;;;;;7.70;99.90;;;;;;8375822;28;20376;-73
2023/02/12 07:45:12;;;;;;;;;;;7.70;99.90;;;;;;8363731;28;20019;-72
2023/02/12 07:49:23;;;;;;;;;;;7.70;99.90;;;;;;8372440;28;19943;-73
2023/02/12 07:53:25;;;;;;;;;;;7.70;99.90;;;;;;8388062;28;20279;-73
2023/02/12 07:57:26;;;;;;;;;;;7.80;99.90;;;;;;8388797;28;20352;-72
2023/02/12 08:01:30;;;;;;;;;;;7.80;99.90;;;;;;8376850;28;20410;-72
2023/02/12 08:05:31;;;;;;;;;;;7.80;99.90;;;;;;8354963;28;19932;-72
2023/02/12 08:09:33;;;;;;;;;;;7.80;99.90;;;;;;8388966;28;19951;-72
2023/02/12 08:13:35;;;;;;;;;;;7.80;99.90;;;;;;8381671;28;20536;-72
2023/02/12 08:17:37;;;;;;;;;;;7.80;99.90;;;;;;8376106;28;19929;-73
2023/02/12 08:21:38;;;;;;;;;;;7.90;99.90;;;;;;8395163;28;20277;-73
2023/02/12 08:25:40;;;;;;;;;;;7.90;99.90;;;;;;8387210;28;19940;-72
2023/02/12 08:29:41;;;;;;;;;;;7.90;99.90;;;;;;8385627;28;20005;-72
2023/02/12 08:33:43;;;;;;;;;;;7.90;99.90;;;;;;8380415;28;20002;-73
2023/02/12 08:37:45;;;;;;;;;;;7.90;99.90;;;;;;8399712;28;19938;-73
2023/02/12 08:41:47;;;;;;;;;;;8.00;99.90;;;;;;8382813;28;19924;-73
2023/02/12 08:45:48;;;;;;;;;;;8.00;99.90;;;;;;8394788;28;19924;-72
2023/02/12 08:49:50;;;;;;;;;;;8.00;99.90;;;;;;8400180;28;19932;-72
2023/02/12 08:53:53;;;;;;;;;;;8.00;99.90;;;;;;8374465;28;19960;-72
2023/02/12 08:57:56;;;;;;;;;;;8.00;99.90;;;;;;8387656;28;19931;-72
2023/02/12 09:01:59;;;;;;;;;;;8.10;99.90;;;;;;8395905;28;19925;-73
2023/02/12 09:06:02;;;;;;;;;;;8.10;99.90;;;;;;8380245;28;19924;-73
2023/02/12 09:10:04;;;;;;;;;;;8.10;99.90;;;;;;8396796;28;19951;-73
2023/02/12 09:14:07;;;;;;;;;;;8.20;99.90;;;;;;8395834;28;19924;-72
2023/02/12 09:18:10;;;;;;;;;;;8.20;99.90;;;;;;8392020;28;19925;-72
2023/02/12 09:22:11;;;;;;;;;;;8.20;99.90;;;;;;8382257;28;20406;-72
2023/02/12 09:26:14;;;;;;;;;;;8.30;99.90;;;;;;8399962;28;19940;-72
2023/02/12 09:30:16;;;;;;;;;;;8.30;99.90;;;;;;8401683;28;19936;-72
2023/02/12 09:34:18;;;;;;;;;;;8.30;99.90;;;;;;8400213;28;19939;-72
2023/02/12 09:38:19;;;;;;;;;;;8.40;99.90;;;;;;8387569;28;19932;-72
2023/02/12 09:42:41;;;;;;;;;;;8.40;99.90;;;;;;8389539;28;19947;-73
2023/02/12 09:46:54;;;;;;;;;;;8.40;99.90;;;;;;8392685;28;19931;-73
2023/02/12 09:50:59;;;;;;;;;;;8.50;99.90;;;;;;8374005;28;19931;-73
2023/02/12 09:55:01;;;;;;;;;;;8.60;99.90;;;;;;8395678;28;20011;-72
2023/02/12 09:59:07;;;;;;;;;;;8.60;99.90;;;;;;8388148;28;19924;-73
2023/02/12 10:03:14;;;;;;;;;;;8.60;99.90;;;;;;8398024;28;19924;-73
2023/02/12 10:07:19;;;;;;;;;;;8.70;99.90;;;;;;8373579;28;19975;-72
2023/02/12 10:11:21;;;;;;;;;;;8.70;99.90;;;;;;8388165;28;19979;-72
2023/02/12 10:15:29;;;;;;;;;;;8.70;99.90;;;;;;8394036;28;19924;-73
2023/02/12 10:19:53;;;;;;;;;;;8.70;99.90;;;;;;8390244;28;19932;-72
2023/02/12 10:23:57;;;;;;;;;;;8.70;99.90;;;;;;8397805;28;19932;-72
2023/02/12 10:28:01;;;;;;;;;;;8.80;99.90;;;;;;8391621;28;19924;-73
2023/02/12 10:32:10;;;;;;;;;;;8.80;99.90;;;;;;8374251;28;20451;-72
2023/02/12 10:36:25;;;;;;;;;;;8.80;99.90;;;;;;8388967;28;19964;-73
2023/02/12 10:40:28;;;;;;;;;;;8.80;99.90;;;;;;8386061;28;19955;-72
2023/02/12 10:44:30;;;;;;;;;;;8.80;99.90;;;;;;8375434;28;19925;-73
2023/02/12 10:48:34;;;;;;;;;;;8.90;99.90;;;;;;8391991;28;19986;-73
2023/02/12 10:52:42;;;;;;;;;;;8.90;99.90;;;;;;8387909;28;20414;-73
2023/02/12 10:56:44;;;;;;;;;;;8.90;99.90;;;;;;8396263;28;19932;-72
2023/02/12 11:00:54;;;;;;;;;;;9.00;99.90;;;;;;8393507;28;19932;-72
2023/02/12 11:04:57;;;;;;;;;;;9.00;99.90;;;;;;8389814;28;19925;-72
2023/02/12 11:08:59;;;;;;;;;;;9.00;99.90;;;;;;8372215;28;19932;-72
2023/02/12 11:13:01;;;;;;;;;;;9.00;99.90;;;;;;8392220;28;20343;-72
2023/02/12 11:17:03;;;;;;;;;;;9.00;99.90;;;;;;8389276;28;20439;-72
2023/02/12 11:21:06;;;;;;;;;;;9.10;99.90;;;;;;8394546;28;20004;-72
2023/02/12 11:25:14;;;;;;;;;;;9.10;99.90;;;;;;8377635;28;19925;-72
2023/02/12 11:29:18;;;;;;;;;;;9.10;99.90;;;;;;8386891;28;19976;-72
2023/02/12 11:33:24;;;;;;;;;;;9.10;99.90;;;;;;8362814;28;19978;-72
2023/02/12 11:37:25;;;;;;;;;;;9.20;99.90;;;;;;8385739;28;19931;-72
2023/02/12 11:41:35;;;;;;;;;;;9.20;99.90;;;;;;8361898;28;20299;-72
2023/02/12 11:45:46;;;;;;;;;;;9.20;99.90;;;;;;8368616;28;19932;-72
2023/02/12 11:49:48;;;;;;;;;;;9.30;99.90;;;;;;8363545;28;19932;-72
2023/02/12 11:53:51;;;;;;;;;;;9.30;99.90;;;;;;8364508;28;20059;-72
2023/02/12 11:58:11;;;;;;;;;;;9.20;99.90;;;;;;8351338;28;19935;-72
2023/02/12 12:02:18;;;;;;;;;;;9.30;99.90;;;;;;8369339;28;19983;-72
2023/02/12 12:06:30;;;;;;;;;;;9.30;99.90;;;;;;8367638;28;19969;-72
2023/02/12 12:10:39;;;;;;;;;;;9.30;99.90;;;;;;8366648;28;20362;-72
2023/02/12 12:23:49;;;;;;;;;;;9.40;99.90;;;;;;8364156;28;20152;-72
2023/02/12 12:28:05;;;;;;;;;;;9.40;99.90;;;;;;8365821;28;20522;-73
2023/02/12 12:32:10;;;;;;;;;;;9.40;99.90;;;;;;8348919;28;20285;-72
2023/02/12 12:36:12;;;;;;;;;;;9.40;99.90;;;;;;8372715;28;19925;-72
2023/02/12 12:40:23;;;;;;;;;;;9.40;99.90;;;;;;8362462;28;19933;-72
2023/02/12 12:44:30;;;;;;;;;;;9.40;99.90;;;;;;8374703;28;19964;-72
2023/02/12 12:48:47;;;;;;;;;;;9.40;99.90;;;;;;8370663;28;19940;-72
2023/02/12 12:53:09;;;;;;;;;;;9.40;99.90;;;;;;8379987;28;20383;-72
2023/02/12 12:57:23;;;;;;;;;;;9.40;99.90;;;;;;8365382;28;20422;-72
2023/02/12 13:01:31;;;;;;;;;;;9.30;99.90;;;;;;8351358;28;19939;-72
2023/02/12 13:05:32;;;;;;;;;;;9.40;99.90;;;;;;8389087;28;20404;-72
2023/02/12 13:09:46;;;;;;;;;;;9.40;99.90;;;;;;8368203;28;19935;-72
2023/02/12 13:13:49;;;;;;;;;;;9.40;99.90;;;;;;8363937;28;20020;-72
2023/02/12 13:17:50;;;;;;;;;;;9.40;99.90;;;;;;8369068;28;19933;-72
2023/02/12 13:22:05;;;;;;;;;;;9.50;99.90;;;;;;8377209;28;19928;-73
2023/02/12 13:26:12;;;;;;;;;;;9.40;99.90;;;;;;8360813;28;19925;-72
2023/02/12 13:30:16;;;;;;;;;;;9.40;99.90;;;;;;8362353;28;19936;-73
2023/02/12 13:34:19;;;;;;;;;;;9.40;99.90;;;;;;8362445;28;20441;-72
2023/02/12 13:38:25;;;;;;;;;;;9.40;99.90;;;;;;8367336;28;19968;-72
2023/02/12 13:42:33;;;;;;;;;;;9.50;99.90;;;;;;8366881;28;19928;-72
2023/02/12 13:46:50;;;;;;;;;;;9.40;99.90;;;;;;8365336;28;19932;-72
2023/02/12 13:51:00;;;;;;;;;;;9.50;99.90;;;;;;8370114;28;19991;-72
2023/02/12 13:55:08;;;;;;;;;;;9.40;99.90;;;;;;8368779;28;19924;-72
2023/02/12 13:59:28;;;;;;;;;;;9.40;99.90;;;;;;8369311;28;19932;-72
2023/02/12 14:03:30;;;;;;;;;;;9.40;99.90;;;;;;8361409;28;19931;-72
2023/02/12 14:07:46;;;;;;;;;;;9.40;99.90;;;;;;8365960;28;19976;-72
2023/02/12 14:11:49;;;;;;;;;;;9.40;99.90;;;;;;8371336;28;19928;-72
2023/02/12 14:15:53;;;;;;;;;;;9.40;99.90;;;;;;8377777;28;20380;-72
2023/02/12 14:20:13;;;;;;;;;;;9.40;99.90;;;;;;8362651;28;19935;-72
2023/02/12 14:24:34;;;;;;;;;;;9.40;99.90;;;;;;8376193;28;20291;-72
2023/02/12 14:28:42;;;;;;;;;;;9.40;99.90;;;;;;8371766;28;19939;-72
2023/02/12 14:32:43;;;;;;;;;;;9.30;99.90;;;;;;8367734;28;20012;-73
2023/02/12 14:36:47;;;;;;;;;;;9.30;99.90;;;;;;8373836;28;20363;-72
2023/02/12 14:40:50;;;;;;;;;;;9.30;99.90;;;;;;8366370;28;20383;-73
2023/02/12 14:44:58;;;;;;;;;;;9.30;99.90;;;;;;8370429;28;20181;-72
2023/02/12 14:49:04;;;;;;;;;;;9.30;99.90;;;;;;8381561;28;19982;-72
2023/02/12 14:53:15;;;;;;;;;;;9.30;99.90;;;;;;8363501;28;19928;-72
2023/02/12 14:57:22;;;;;;;;;;;9.30;99.90;;;;;;8350270;28;19939;-72
2023/02/12 15:01:28;;;;;;;;;;;9.30;99.90;;;;;;8365104;28;20586;-72
2023/02/12 15:05:35;;;;;;;;;;;9.40;99.90;;;;;;8371057;28;19932;-72
2023/02/12 15:09:49;;;;;;;;;;;9.40;99.90;;;;;;8356049;28;19979;-72
2023/02/12 15:13:54;;;;;;;;;;;9.40;99.90;;;;;;8355168;28;19924;-72
2023/02/12 15:18:15;;;;;;;;;;;9.40;99.90;;;;;;8351788;28;19951;-72
2023/02/12 15:22:22;;;;;;;;;;;9.40;99.90;;;;;;8338951;28;19929;-72
2023/02/12 15:26:25;;;;;;;;;;;9.40;99.90;;;;;;8359823;28;19925;-72
2023/02/12 15:30:31;;;;;;;;;;;9.40;99.90;;;;;;8361908;28;20326;-72
2023/02/12 15:34:36;;;;;;;;;;;9.40;99.90;;;;;;8361852;28;19956;-72
2023/02/12 15:38:42;;;;;;;;;;;9.40;99.90;;;;;;8342015;28;19967;-72
2023/02/12 15:42:50;;;;;;;;;;;9.30;99.90;;;;;;8358580;28;20031;-72
2023/02/12 15:47:09;;;;;;;;;;;9.30;99.90;;;;;;8358095;28;19931;-72
2023/02/12 15:51:13;;;;;;;;;;;9.30;99.90;;;;;;8358898;28;19967;-72
2023/02/12 15:55:16;;;;;;;;;;;9.30;99.90;;;;;;8367192;28;19972;-72
2023/02/12 15:59:22;;;;;;;;;;;9.30;99.90;;;;;;8348063;28;19931;-72
2023/02/12 16:03:30;;;;;;;;;;;9.30;99.90;;;;;;8353591;28;20012;-72
2023/02/12 16:07:34;;;;;;;;;;;9.30;99.90;;;;;;8369686;28;19925;-72
2023/02/12 16:11:36;;;;;;;;;;;9.20;99.90;;;;;;8338095;28;20381;-73
2023/02/12 16:15:39;;;;;;;;;;;9.20;99.90;;;;;;8350610;28;19955;-72
2023/02/12 16:19:40;;;;;;;;;;;9.10;99.90;;;;;;8340538;28;19929;-72
2023/02/12 16:23:46;;;;;;;;;;;9.10;99.90;;;;;;8364329;28;19924;-72
2023/02/12 16:27:51;;;;;;;;;;;9.10;99.90;;;;;;8360397;28;19936;-72
2023/02/12 16:31:54;;;;;;;;;;;9.00;99.90;;;;;;8356627;28;20082;-73
2023/02/12 16:36:00;;;;;;;;;;;9.00;99.90;;;;;;8356733;28;19936;-72
2023/02/12 16:40:02;;;;;;;;;;;9.00;99.90;;;;;;8368737;28;19976;-72
2023/02/12 16:44:04;;;;;;;;;;;9.00;99.90;;;;;;8368143;28;20018;-72
2023/02/12 16:48:14;;;;;;;;;;;9.00;99.90;;;;;;8341287;28;19932;-72
2023/02/12 16:52:17;;;;;;;;;;;9.00;99.90;;;;;;8358942;28;19939;-72
2023/02/12 16:56:21;;;;;;;;;;;9.00;99.90;;;;;;8363477;28;19932;-73
2023/02/12 17:00:22;;;;;;;;;;;8.90;99.90;;;;;;8367479;28;20283;-72
2023/02/12 17:04:25;;;;;;;;;;;8.90;99.90;;;;;;8371141;28;20410;-72
2023/02/12 17:08:26;;;;;;;;;;;8.90;99.90;;;;;;8364863;28;19924;-72
2023/02/12 17:12:28;;;;;;;;;;;8.80;99.90;;;;;;8374647;28;19983;-72
2023/02/12 17:16:29;;;;;;;;;;;8.80;99.90;;;;;;8360028;28;20028;-72
2023/02/12 17:20:32;;;;;;;;;;;8.80;99.90;;;;;;8365127;28;19951;-71
2023/02/12 17:24:34;;;;;;;;;;;8.80;99.90;;;;;;8367223;28;19940;-72
2023/02/12 17:28:36;;;;;;;;;;;8.70;99.90;;;;;;8373953;28;19928;-71
2023/02/12 17:32:37;;;;;;;;;;;8.80;99.90;;;;;;8362620;28;20433;-72
2023/02/12 17:36:39;;;;;;;;;;;8.70;99.90;;;;;;8379899;28;19958;-71
2023/02/12 17:40:40;;;;;;;;;;;8.70;99.90;;;;;;8376192;28;19980;-71
2023/02/12 17:44:42;;;;;;;;;;;8.70;99.90;;;;;;8370036;28;20415;-71
2023/02/12 17:48:44;;;;;;;;;;;8.60;99.90;;;;;;8362720;28;20020;-72
2023/02/12 17:52:45;;;;;;;;;;;8.60;99.90;;;;;;8363509;28;19932;-72
2023/02/12 17:56:47;;;;;;;;;;;8.60;99.90;;;;;;8360240;28;20023;-72
2023/02/12 18:00:48;;;;;;;;;;;8.60;99.90;;;;;;8360619;28;20060;-71
2023/02/12 18:04:50;;;;;;;;;;;8.60;99.90;;;;;;8362801;28;20364;-71
2023/02/12 18:08:52;;;;;;;;;;;8.60;99.90;;;;;;8364226;28;19929;-71
2023/02/12 18:12:54;;;;;;;;;;;8.50;99.90;;;;;;8343870;28;20590;-71
2023/02/12 18:16:55;;;;;;;;;;;8.50;99.90;;;;;;8364054;28;19936;-71
2023/02/12 18:20:57;;;;;;;;;;;8.50;99.90;;;;;;8362532;28;19932;-71
2023/02/12 18:24:59;;;;;;;;;;;8.50;99.90;;;;;;8361761;28;19933;-71
2023/02/12 18:29:01;;;;;;;;;;;8.50;99.90;;;;;;8356086;28;19925;-71
2023/02/12 18:33:03;;;;;;;;;;;8.50;99.90;;;;;;8358872;28;19960;-71
2023/02/12 18:37:05;;;;;;;;;;;8.50;99.90;;;;;;8366397;28;20011;-72
2023/02/12 18:41:08;;;;;;;;;;;8.50;99.90;;;;;;8365304;28;20084;-71
2023/02/12 18:45:10;;;;;;;;;;;8.40;99.90;;;;;;8368638;28;19924;-71
2023/02/12 18:49:12;;;;;;;;;;;8.40;99.90;;;;;;8365159;28;20016;-72
2023/02/12 18:53:14;;;;;;;;;;;8.40;99.90;;;;;;8367632;28;20331;-71
2023/02/12 18:57:16;;;;;;;;;;;8.40;99.90;;;;;;8369400;28;19932;-71
2023/02/12 19:01:18;;;;;;;;;;;8.40;99.90;;;;;;8368420;28;19974;-71
2023/02/12 19:05:20;;;;;;;;;;;8.30;99.90;;;;;;8359106;28;19929;-72
2023/02/12 19:09:23;;;;;;;;;;;8.30;99.90;;;;;;8364415;28;20046;-71
2023/02/12 19:13:24;;;;;;;;;;;8.30;99.90;;;;;;8364401;28;20276;-71
2023/02/12 19:17:26;;;;;;;;;;;8.30;99.90;;;;;;8369422;28;19925;-71
2023/02/12 19:21:28;;;;;;;;;;;8.30;99.90;;;;;;8365693;28;19979;-71
2023/02/12 19:25:30;;;;;;;;;;;8.30;99.90;;;;;;8369779;28;19924;-72
2023/02/12 19:29:31;;;;;;;;;;;8.30;99.90;;;;;;8371346;28;19924;-72
2023/02/12 19:33:33;;;;;;;;;;;8.30;99.90;;;;;;8366653;28;20444;-72
2023/02/12 19:37:35;;;;;;;;;;;8.30;99.90;;;;;;8367970;28;19929;-72
2023/02/12 19:41:39;;;;;;;;;;;8.30;99.90;;;;;;8361804;28;20023;-72
2023/02/12 19:45:41;;;;;;;;;;;8.30;99.90;;;;;;8361735;28;19924;-72
2023/02/12 19:49:43;;;;;;;;;;;8.30;99.90;;;;;;8363436;28;19924;-72
2023/02/12 19:53:45;;;;;;;;;;;8.30;99.90;;;;;;8379830;28;19936;-71
2023/02/12 19:57:47;;;;;;;;;;;8.20;99.90;;;;;;8358833;28;20083;-72
2023/02/12 20:01:48;;;;;;;;;;;8.20;99.90;;;;;;8359669;28;19932;-71
2023/02/12 20:06:01;;;;;;;;;;;8.20;99.90;;;;;;8361513;28;19928;-71
2023/02/12 20:10:02;;;;;;;;;;;8.20;99.90;;;;;;8340694;28;19928;-71
2023/02/12 20:14:06;;;;;;;;;;;8.20;99.90;;;;;;8362075;28;19988;-71
2023/02/12 20:18:09;;;;;;;;;;;8.20;99.90;;;;;;8358606;28;19935;-72
2023/02/12 20:22:11;;;;;;;;;;;8.20;99.90;;;;;;8369121;28;19924;-71
2023/02/12 20:26:13;;;;;;;;;;;8.20;99.90;;;;;;8365832;28;20411;-71
2023/02/12 20:30:14;;;;;;;;;;;8.20;99.90;;;;;;8364092;28;20018;-71
2023/02/12 20:34:17;;;;;;;;;;;8.20;99.90;;;;;;8363383;28;19929;-72
2023/02/12 20:38:19;;;;;;;;;;;8.20;99.90;;;;;;8361601;28;19929;-71
2023/02/12 20:42:21;;;;;;;;;;;8.20;99.90;;;;;;8345457;28;19936;-71
2023/02/12 20:46:23;;;;;;;;;;;8.20;99.90;;;;;;8353835;28;19925;-71
2023/02/12 20:50:25;;;;;;;;;;;8.20;99.90;;;;;;8368131;28;19932;-71
2023/02/12 20:54:27;;;;;;;;;;;8.20;99.90;;;;;;8361026;28;19925;-71
2023/02/12 20:58:28;;;;;;;;;;;8.20;99.90;;;;;;8370306;28;19964;-71
2023/02/12 21:02:30;;;;;;;;;;;8.10;99.90;;;;;;8368424;28;20022;-71
2023/02/12 21:06:32;;;;;;;;;;;8.10;99.90;;;;;;8384820;28;19924;-71
2023/02/12 21:10:34;;;;;;;;;;;8.10;99.90;;;;;;8372763;28;20029;-71
2023/02/12 21:14:35;;;;;;;;;;;8.10;99.90;;;;;;8367969;28;19924;-71
2023/02/12 21:18:37;;;;;;;;;;;8.10;99.90;;;;;;8369932;28;20342;-71
2023/02/12 21:22:39;;;;;;;;;;;8.10;99.90;;;;;;8366086;28;19964;-71
2023/02/12 21:26:41;;;;;;;;;;;8.10;99.90;;;;;;8370041;28;19935;-71
2023/02/12 21:30:45;;;;;;;;;;;8.10;99.90;;;;;;8366617;28;20018;-71
2023/02/12 21:34:46;;;;;;;;;;;8.10;99.90;;;;;;8373900;28;19935;-71
2023/02/12 21:38:50;;;;;;;;;;;8.10;99.90;;;;;;8371068;28;20438;-71
2023/02/12 21:42:52;;;;;;;;;;;8.10;99.90;;;;;;8366033;28;20038;-71
2023/02/12 21:46:53;;;;;;;;;;;8.10;99.90;;;;;;8367743;28;19925;-72
2023/02/12 22:06:07;;;;;;;;;;;8.10;99.90;;;;;;8382007;28;19919;-71
2023/02/12 22:10:09;;;;;;;;;;;8.10;99.90;;;;;;8387915;28;19928;-71
2023/02/12 22:14:12;;;;;;;;;;;8.10;99.90;;;;;;8378162;28;19977;-71
2023/02/12 22:18:15;;;;;;;;;;;8.10;99.90;;;;;;8370055;28;20198;-71
2023/02/12 22:22:17;;;;;;;;;;;8.10;99.90;;;;;;8392173;28;19932;-71
2023/02/12 22:26:21;;;;;;;;;;;8.10;99.90;;;;;;8393639;28;19932;-71
2023/02/12 22:30:23;;;;;;;;;;;8.10;99.90;;;;;;8387779;28;20387;-71
2023/02/12 22:34:25;;;;;;;;;;;8.10;99.90;;;;;;8369005;28;19929;-71
2023/02/12 22:38:26;;;;;;;;;;;8.10;99.90;;;;;;8391565;28;19964;-71
2023/02/12 22:42:28;;;;;;;;;;;8.00;99.90;;;;;;8365526;28;19947;-71
2023/02/12 22:46:29;;;;;;;;;;;8.00;99.90;;;;;;8381722;28;19928;-71
2023/02/12 22:50:31;;;;;;;;;;;8.10;99.90;;;;;;8381206;28;20017;-71
2023/02/12 22:54:33;;;;;;;;;;;8.00;99.90;;;;;;8386602;28;20388;-71
2023/02/12 22:58:35;;;;;;;;;;;8.10;99.90;;;;;;8388032;28;19928;-71
2023/02/12 23:02:37;;;;;;;;;;;8.00;99.90;;;;;;8384858;28;19936;-71
2023/02/12 23:06:39;;;;;;;;;;;8.00;99.90;;;;;;8375985;28;19925;-71
2023/02/12 23:10:40;;;;;;;;;;;8.10;99.90;;;;;;8389435;28;19931;-71
2023/02/12 23:14:42;;;;;;;;;;;8.10;99.90;;;;;;8386979;28;19925;-72
2023/02/12 23:18:43;;;;;;;;;;;8.10;99.90;;;;;;8378080;28;19998;-71
2023/02/12 23:22:45;;;;;;;;;;;8.10;99.90;;;;;;8386101;28;20398;-71
2023/02/12 23:26:47;;;;;;;;;;;8.10;99.90;;;;;;8383334;28;20410;-71
2023/02/12 23:30:49;;;;;;;;;;;8.10;99.90;;;;;;8369587;28;19932;-71
2023/02/12 23:34:51;;;;;;;;;;;8.10;99.90;;;;;;8395910;28;19969;-72
2023/02/12 23:38:53;;;;;;;;;;;8.10;99.90;;;;;;8371817;28;19928;-71
2023/02/12 23:42:54;;;;;;;;;;;8.10;99.90;;;;;;8382387;28;20324;-71
2023/02/12 23:46:56;;;;;;;;;;;8.10;99.90;;;;;;8387169;28;19931;-71
2023/02/12 23:50:58;;;;;;;;;;;8.10;99.90;;;;;;8388785;28;19925;-71
2023/02/12 23:55:00;;;;;;;;;;;8.10;99.90;;;;;;8370759;28;19936;-71
2023/02/12 23:59:01;;;;;;;;;;;8.10;99.90;;;;;;8378479;28;19931;-71
